createdAt,value
2023-04-19T00:02:31.740Z,5.00
2023-04-19T00:06:33.191Z,4.90
2023-04-19T00:10:35.051Z,4.40
2023-04-19T00:14:36.460Z,5.13
2023-04-19T00:18:39.465Z,4.80
2023-04-19T00:22:40.865Z,4.60
2023-04-19T00:26:42.274Z,4.73
2023-04-19T00:30:43.785Z,4.63
2023-04-19T00:34:46.685Z,4.83
2023-04-19T00:38:48.133Z,4.57
2023-04-19T00:42:49.548Z,4.77
2023-04-19T00:46:51.474Z,4.20
2023-04-19T00:50:54.732Z,4.60
2023-04-19T00:54:58.483Z,4.70
2023-04-19T00:59:00.219Z,4.43
2023-04-19T01:03:01.946Z,4.77
2023-04-19T01:07:05.293Z,4.53
2023-04-19T01:11:06.779Z,4.27
2023-04-19T01:15:09.251Z,4.63
2023-04-19T01:19:10.761Z,4.70
2023-04-19T01:23:13.632Z,4.30
2023-04-19T01:27:15.134Z,4.40
2023-04-19T01:31:16.691Z,4.23
2023-04-19T01:35:19.664Z,4.10
2023-04-19T01:39:22.957Z,3.97
2023-04-19T01:43:24.415Z,4.03
2023-04-19T01:47:25.839Z,4.30
2023-04-19T01:51:27.323Z,4.70
2023-04-19T01:55:30.242Z,5.73
2023-04-19T01:59:31.715Z,6.40
2023-04-19T02:03:33.218Z,6.33
2023-04-19T02:07:35.132Z,6.47
2023-04-19T02:11:38.416Z,6.83
2023-04-19T02:15:40.859Z,6.60
2023-04-19T02:19:42.297Z,7.07
2023-04-19T02:23:43.721Z,7.27
2023-04-19T02:27:46.494Z,7.33
2023-04-19T02:31:47.986Z,6.97
2023-04-19T02:35:49.454Z,8.10
2023-04-19T02:39:50.889Z,9.07
2023-04-19T02:43:56.142Z,8.57
2023-04-19T02:47:57.639Z,8.40
2023-04-19T02:51:59.311Z,8.80
2023-04-19T02:56:00.903Z,9.20
2023-04-19T03:00:04.644Z,10.23
2023-04-19T03:04:06.157Z,10.40
2023-04-19T03:08:08.373Z,9.77
2023-04-19T03:12:10.018Z,10.93
2023-04-19T03:16:12.797Z,11.43
2023-04-19T03:20:14.392Z,11.50
2023-04-19T03:24:15.965Z,11.17
2023-04-19T03:28:17.619Z,12.13
2023-04-19T03:32:20.420Z,13.03
2023-04-19T03:36:21.883Z,11.47
2023-04-19T03:40:23.328Z,12.33
2023-04-19T03:44:24.786Z,11.07
2023-04-19T03:48:27.545Z,12.00
2023-04-19T03:52:28.966Z,11.43
2023-04-19T03:56:30.432Z,11.60
2023-04-19T04:00:31.855Z,11.10
2023-04-19T04:04:35.524Z,9.97
2023-04-19T04:08:37.127Z,9.20
2023-04-19T04:12:38.587Z,9.20
2023-04-19T04:16:40.117Z,9.00
2023-04-19T04:20:43.355Z,8.83
2023-04-19T04:24:44.830Z,8.33
2023-04-19T04:28:46.226Z,8.67
2023-04-19T04:32:47.722Z,8.37
2023-04-19T04:36:50.576Z,8.53
2023-04-19T04:40:52.441Z,8.40
2023-04-19T04:44:54.235Z,7.87
2023-04-19T04:48:55.905Z,8.30
2023-04-19T04:52:58.673Z,8.20
2023-04-19T04:57:00.200Z,7.93
2023-04-19T05:01:01.809Z,7.37
2023-04-19T05:05:03.548Z,7.67
2023-04-19T05:09:06.411Z,7.70
2023-04-19T05:13:07.890Z,7.57
2023-04-19T05:17:09.303Z,7.80
2023-04-19T05:21:10.704Z,7.87
2023-04-19T05:25:13.522Z,7.93
2023-04-19T05:29:15.169Z,7.60
2023-04-19T05:33:16.595Z,8.63
2023-04-19T05:37:18.030Z,8.00
2023-04-19T05:41:20.898Z,7.90
2023-04-19T05:45:22.508Z,7.50
2023-04-19T05:49:24.135Z,7.63
2023-04-19T05:53:25.635Z,8.10
2023-04-19T05:57:28.397Z,8.10
2023-04-19T06:01:30.219Z,8.67
2023-04-19T06:05:31.742Z,8.80
2023-04-19T06:09:33.296Z,8.97
2023-04-19T06:13:36.142Z,8.27
2023-04-19T06:17:37.629Z,7.93
2023-04-19T06:21:39.268Z,8.97
2023-04-19T06:25:40.920Z,9.40
2023-04-19T06:29:43.681Z,8.30
2023-04-19T06:33:45.336Z,7.80
2023-04-19T06:37:46.817Z,7.43
2023-04-19T06:41:48.248Z,6.47
2023-04-19T06:45:58.026Z,6.90
2023-04-19T06:50:00.443Z,6.77
2023-04-19T06:54:01.840Z,6.40
2023-04-19T06:58:03.315Z,6.10
2023-04-19T07:02:06.413Z,5.90
2023-04-19T07:06:07.900Z,5.97
2023-04-19T07:10:09.722Z,5.53
2023-04-19T07:14:11.228Z,5.83
2023-04-19T07:18:16.444Z,5.40
2023-04-19T07:22:17.883Z,5.27
2023-04-19T07:26:19.370Z,5.17
2023-04-19T07:30:21.226Z,5.50
2023-04-19T07:34:23.956Z,5.10
2023-04-19T07:38:25.473Z,4.87
2023-04-19T07:42:26.861Z,4.60
2023-04-19T07:46:28.325Z,4.30
2023-04-19T07:50:31.109Z,4.13
2023-04-19T07:54:32.606Z,4.67
2023-04-19T07:58:34.110Z,4.40
2023-04-19T08:02:36.607Z,4.50
2023-04-19T08:06:39.467Z,3.97
2023-04-19T08:10:40.876Z,3.97
2023-04-19T08:14:56.387Z,4.10
2023-04-19T08:19:01.296Z,3.70
2023-04-19T08:23:13.971Z,3.90
2023-04-19T08:27:22.605Z,3.63
2023-04-19T08:31:24.281Z,3.73
2023-04-19T08:35:25.902Z,3.80
2023-04-19T08:39:33.089Z,4.10
2023-04-19T08:43:36.880Z,4.00
2023-04-19T08:47:51.960Z,4.00
2023-04-19T08:51:59.275Z,4.20
2023-04-19T09:00:08.246Z,4.53
2023-04-19T09:04:34.924Z,4.33
2023-04-19T09:08:31.247Z,4.07
2023-04-19T09:12:34.299Z,3.93
2023-04-19T09:16:35.996Z,4.23
2023-04-19T09:20:38.624Z,4.33
2023-04-19T09:28:55.842Z,4.10
2023-04-19T09:32:57.327Z,4.00
2023-04-19T09:37:17.285Z,3.70
2023-04-19T09:41:31.151Z,3.60
2023-04-19T09:45:44.207Z,3.70
2023-04-19T09:49:49.085Z,3.45
2023-04-19T09:53:51.350Z,3.88
2023-04-19T09:57:53.307Z,5.00
2023-04-19T10:01:56.690Z,3.78
2023-04-19T10:06:04.223Z,3.90
2023-04-19T10:10:19.619Z,3.27
2023-04-19T10:14:24.122Z,3.63
2023-04-19T10:18:27.293Z,3.75
2023-04-19T10:22:28.775Z,3.38
2023-04-19T10:26:30.552Z,3.05
2023-04-19T10:30:32.050Z,3.42
2023-04-19T10:34:40.818Z,3.10
2023-04-19T10:38:44.066Z,3.33
2023-04-19T10:43:15.481Z,3.28
2023-04-19T10:47:40.718Z,3.08
2023-04-19T10:51:49.914Z,3.00
2023-04-19T10:55:51.354Z,2.80
2023-04-19T11:00:19.709Z,3.00
2023-04-19T11:04:23.567Z,2.70
2023-04-19T11:08:26.531Z,3.10
2023-04-19T11:12:27.968Z,3.10
2023-04-19T11:16:42.331Z,3.00
2023-04-19T11:20:52.759Z,3.00
2023-04-19T11:24:56.905Z,2.90
2023-04-19T11:28:58.348Z,3.00
2023-04-19T11:32:59.823Z,2.83
2023-04-19T11:37:01.342Z,2.83
2023-04-19T11:41:04.551Z,2.90
2023-04-19T11:45:13.242Z,2.88
2023-04-19T11:49:26.050Z,2.40
2023-04-19T11:53:28.487Z,2.42
2023-04-19T11:57:31.228Z,2.75
2023-04-19T12:01:32.651Z,2.30
2023-04-19T12:05:34.103Z,2.58
2023-04-19T12:09:36.362Z,2.47
2023-04-19T12:13:39.221Z,2.28
2023-04-19T12:17:57.444Z,2.42
2023-04-19T12:22:08.099Z,2.28
2023-04-19T12:26:09.484Z,2.22
2023-04-19T12:30:13.181Z,2.07
2023-04-19T12:34:14.820Z,2.50
2023-04-19T12:38:16.316Z,1.90
2023-04-19T12:42:18.105Z,2.27
2023-04-19T12:46:20.948Z,2.13
2023-04-19T12:50:22.577Z,2.10
2023-04-19T12:54:24.191Z,2.03
2023-04-19T12:58:25.896Z,2.10
2023-04-19T13:02:28.809Z,2.50
2023-04-19T13:06:30.399Z,2.10
2023-04-19T13:10:31.972Z,1.73
2023-04-19T13:14:33.675Z,2.13
2023-04-19T13:18:36.467Z,2.00
2023-04-19T13:22:37.884Z,2.30
2023-04-19T13:26:39.441Z,2.13
2023-04-19T13:30:40.946Z,1.97
2023-04-19T13:34:43.674Z,2.10
2023-04-19T13:38:45.491Z,2.20
2023-04-19T13:42:46.947Z,2.00
2023-04-19T13:46:48.478Z,2.20
2023-04-19T13:50:51.693Z,2.20
2023-04-19T13:54:53.267Z,2.30
2023-04-19T13:58:54.716Z,2.30
2023-04-19T14:02:56.368Z,2.10
2023-04-19T14:06:59.360Z,2.25
2023-04-19T14:11:00.836Z,2.13
2023-04-19T14:15:02.316Z,2.17
2023-04-19T14:19:03.866Z,2.00
2023-04-19T14:23:06.735Z,2.30
2023-04-19T14:27:11.596Z,2.00
2023-04-19T14:31:13.337Z,2.03
2023-04-19T14:35:14.819Z,2.07
2023-04-19T14:39:17.732Z,2.23
2023-04-19T14:43:19.374Z,1.83
2023-04-19T14:47:21.501Z,1.77
2023-04-19T14:51:23.158Z,2.13
2023-04-19T14:55:26.075Z,2.30
2023-04-19T14:59:29.851Z,2.30
2023-04-19T15:03:31.688Z,2.33
2023-04-19T15:07:33.303Z,2.40
2023-04-19T15:11:36.212Z,2.30
2023-04-19T15:15:37.787Z,2.40
2023-04-19T15:19:39.313Z,2.23
2023-04-19T15:23:41.207Z,2.10
2023-04-19T15:27:44.000Z,2.13
2023-04-19T15:31:45.539Z,2.30
2023-04-19T15:35:50.751Z,2.47
2023-04-19T15:39:52.205Z,2.20
2023-04-19T15:43:55.014Z,2.57
2023-04-19T15:47:56.485Z,2.20
2023-04-19T15:51:57.925Z,2.40
2023-04-19T15:55:59.345Z,2.33
2023-04-19T16:00:02.141Z,2.30
2023-04-19T16:04:03.791Z,2.50
2023-04-19T16:08:07.365Z,2.37
2023-04-19T16:12:08.769Z,2.43
2023-04-19T16:16:11.617Z,2.40
2023-04-19T16:20:13.173Z,2.63
2023-04-19T16:24:14.634Z,2.40
2023-04-19T16:28:16.104Z,2.40
2023-04-19T16:32:18.971Z,2.47
2023-04-19T16:36:20.445Z,2.70
2023-04-19T16:40:22.672Z,2.23
2023-04-19T16:44:24.129Z,2.40
2023-04-19T16:48:26.968Z,2.00
2023-04-19T16:52:31.048Z,2.10
2023-04-19T16:56:32.464Z,2.40
2023-04-19T17:00:35.263Z,2.40
2023-04-19T17:04:38.279Z,2.33
2023-04-19T17:08:40.189Z,2.30
2023-04-19T17:12:41.729Z,2.20
2023-04-19T17:16:43.238Z,2.20
2023-04-19T17:20:46.251Z,2.00
2023-04-19T17:24:47.755Z,2.53
2023-04-19T17:28:49.256Z,2.40
2023-04-19T17:32:50.768Z,2.67
2023-04-19T17:36:53.799Z,2.33
2023-04-19T17:40:55.320Z,2.20
2023-04-19T17:44:56.750Z,1.60
2023-04-19T17:48:58.187Z,2.00
2023-04-19T17:53:00.994Z,1.63
2023-04-19T17:57:02.548Z,2.20
2023-04-19T18:01:04.391Z,1.70
2023-04-19T18:05:06.296Z,1.60
2023-04-19T18:09:09.327Z,2.10
2023-04-19T18:13:10.752Z,1.70
2023-04-19T18:17:12.140Z,1.83
2023-04-19T18:21:13.566Z,3.67
2023-04-19T18:25:16.631Z,2.63
2023-04-19T18:29:18.282Z,2.15
2023-04-19T18:33:19.793Z,1.73
2023-04-19T18:37:21.258Z,2.47
2023-04-19T18:41:24.398Z,2.30
2023-04-19T18:45:26.301Z,3.93
2023-04-19T18:49:27.792Z,3.57
2023-04-19T18:53:29.231Z,2.17
2023-04-19T18:57:34.714Z,2.23
2023-04-19T19:01:36.639Z,2.43
2023-04-19T19:05:38.240Z,2.30
2023-04-19T19:13:46.014Z,2.67
2023-04-19T19:17:49.752Z,2.03
2023-04-19T19:21:51.794Z,1.97
2023-04-19T19:25:53.149Z,2.03
2023-04-19T19:29:55.898Z,2.27
2023-04-19T19:34:13.848Z,2.30
2023-04-19T19:38:18.665Z,2.30
2023-04-19T19:42:20.299Z,2.20
2023-04-19T19:46:23.244Z,2.57
2023-04-19T19:51:02.125Z,2.30
2023-04-19T19:54:46.449Z,2.20
2023-04-19T19:58:51.371Z,2.20
2023-04-19T20:02:56.632Z,2.30
2023-04-19T20:11:02.829Z,2.03
2023-04-19T20:15:05.378Z,2.17
2023-04-19T20:19:08.304Z,2.20
2023-04-19T20:23:09.744Z,2.27
2023-04-19T20:27:11.212Z,2.37
2023-04-19T20:31:12.682Z,2.37
2023-04-19T20:35:15.588Z,2.30
2023-04-19T20:39:17.395Z,2.27
2023-04-19T20:43:18.939Z,2.00
2023-04-19T20:47:20.361Z,2.17
2023-04-19T20:51:24.179Z,2.27
2023-04-19T20:55:25.833Z,2.80
2023-04-19T20:59:27.526Z,2.00
2023-04-19T21:03:29.065Z,2.30
2023-04-19T21:07:32.006Z,2.60
2023-04-19T21:11:33.384Z,2.60
2023-04-19T21:15:35.050Z,2.27
2023-04-19T21:19:36.775Z,2.47
2023-04-19T21:23:39.762Z,2.40
2023-04-19T21:27:41.832Z,2.97
2023-04-19T21:31:43.534Z,2.40
2023-04-19T21:35:44.982Z,2.70
2023-04-19T21:39:48.132Z,2.57
2023-04-19T21:43:49.766Z,2.97
2023-04-19T21:47:51.239Z,2.77
2023-04-19T21:51:52.808Z,2.80
2023-04-19T21:55:55.732Z,2.33
2023-04-19T21:59:57.134Z,2.60
2023-04-19T22:03:58.958Z,2.80
2023-04-19T22:08:00.950Z,2.63
2023-04-19T22:12:04.287Z,2.50
2023-04-19T22:16:06.151Z,2.80
2023-04-19T22:20:08.689Z,2.80
2023-04-19T22:24:10.079Z,2.80
2023-04-19T22:28:12.858Z,2.83
2023-04-19T22:32:14.329Z,2.63
2023-04-19T22:36:15.826Z,2.60
2023-04-19T22:40:17.228Z,2.90
2023-04-19T22:44:19.946Z,2.60
2023-04-19T22:48:21.401Z,2.73
2023-04-19T22:52:23.022Z,2.60
2023-04-19T22:56:24.419Z,2.90
2023-04-19T23:00:27.112Z,2.70
2023-04-19T23:04:32.761Z,3.13
2023-04-19T23:08:35.281Z,2.67
2023-04-19T23:12:36.703Z,3.00
2023-04-19T23:16:39.661Z,3.40
2023-04-19T23:20:41.082Z,3.00
2023-04-19T23:24:42.460Z,2.80
2023-04-19T23:28:43.887Z,3.30
2023-04-19T23:32:46.605Z,3.00
2023-04-19T23:36:48.356Z,3.10
2023-04-19T23:40:49.726Z,3.00
2023-04-19T23:44:51.163Z,2.73
2023-04-19T23:48:54.557Z,2.40
2023-04-19T23:52:55.956Z,2.97
2023-04-19T23:56:57.429Z,2.83
